Free Trial

Avid Bioservices (CDMO) Institutional Ownership

$7.61
-0.38 (-4.76%)
(As of 06/12/2024 ET)

Institutional Ownership Changes (13F Filings) for Avid Bioservices (NASDAQ:CDMO)

Current
Institutional Ownership
Percentage
97.16%
Number of
Institutional Buyers
(last 12 months)
56
Total
Institutional Inflows
(last 12 months)
$72.53M
Number of
Institutional Sellers
(last 12 months)
43
Total
Institutional Outflows
(last 12 months)
$34.97M
Get CDMO Insider Trade Alerts

Want to know when executives and insiders are buying or selling Avid Bioservices stock? Sign up for InsiderTrades.com's daily newsletter to get the latest insider transactions delivered to your inbox daily.

Skip Chart & View Institutional Buying and Selling Data

CDMO Institutional Buying and Selling by Quarter

Avid Bioservices Major Shareholders & Ownership History

Reporting DateMajor Shareholder NameShares HeldMarket Value% of PortfolioQuarterly Change in SharesOwnership in CompanyDetails
5/16/2024 California State Teachers Retirement System63,161$423K0.0%-5.0%0.099%
5/16/2024 AWM Investment Company Inc.693,679$4.65M0.6%-25.5%1.093%
5/16/2024 Kennedy Capital Management LLC597,089$4M0.1%+74.6%0.941%
5/16/2024 Kent Lake Capital LLC280,504$1.88M0.8%N/A0.442%
5/15/2024 Price T Rowe Associates Inc. MD30,299$204K0.0%+5.8%0.048%
5/14/2024 Anson Funds Management LP164,313$1.10M0.1%+20.5%0.259%
5/14/2024 EntryPoint Capital LLC34,285$230K0.2%-20.7%0.054%
5/10/2024 Vanguard Group Inc.3,665,188$24.56M0.0%+1.3%5.774%
5/9/2024 State Board of Administration of Florida Retirement System16,354$110K0.0%-7.7%0.026%
5/7/2024 Sei Investments Co.138,963$931K0.0%-2.0%0.219%
5/7/2024 12 West Capital Management LP2,750,000$18.43M1.7%N/A4.332%
5/3/2024 GSA Capital Partners LLP92,695$621K0.0%+394.8%0.146%
5/1/2024 Janney Montgomery Scott LLC61,545$412K0.0%+104.5%0.097%
5/1/2024 BNP Paribas Financial Markets310,559$2.08M0.0%+50.8%0.489%
5/1/2024 Mirae Asset Global Investments Co. Ltd.43,661$293K0.0%+7.1%0.069%
4/23/2024 Rice Hall James & Associates LLC391,097$2.62M0.1%-3.9%0.618%
4/9/2024 Mather Group LLC.7,143$46K0.0%N/A0.011%
4/5/2024 CWM LLC4,055$27K0.0%-39.5%0.006%
3/22/2024 PNC Financial Services Group Inc.3,859$25K0.0%-80.9%0.006%
3/5/2024 Wellington Management Group LLP1,478,842$9.61M0.0%+27.1%2.338%
2/13/2024 Stephens Inc. AR253,368$1.65M0.0%+62.1%0.401%
2/13/2024 Rafferty Asset Management LLC381,159$2.48M0.0%+96.6%0.603%
2/12/2024 Evoke Wealth LLC19,184$125K0.0%N/A0.030%
2/9/2024 Oxford Asset Management LLP10,486$68K0.1%N/A0.017%
2/9/2024 Trexquant Investment LP193,768$1.26M0.0%N/A0.306%
2/8/2024 Great Lakes Advisors LLC67,195$437K0.0%-56.4%0.106%
2/8/2024 Roubaix Capital LLC369,158$2.40M1.7%+374.2%0.584%
2/7/2024 Jump Financial LLC144,049$936K0.0%N/A0.228%
2/7/2024 BNP Paribas Financial Markets205,986$1.34M0.0%+266.2%0.326%
2/7/2024 Teacher Retirement System of Texas14,589$95K0.0%-18.1%0.023%
2/7/2024 E Fund Management Co. Ltd.20,349$132K0.0%N/A0.032%
2/6/2024 M&T Bank Corp103,432$673K0.0%+20.6%0.164%
2/6/2024 Amalgamated Bank8,785$57K0.0%-69.1%0.014%
2/6/2024 Swiss National Bank124,400$809K0.0%-9.8%0.197%
2/5/2024 Victory Capital Management Inc.13,879$90K0.0%-53.2%0.022%
2/5/2024 Sargent Investment Group LLC712,505$4.63M1.0%-1.2%1.127%
2/1/2024 New York State Common Retirement Fund758,259$4.93M0.0%-23.5%1.199%
2/1/2024 Jennison Associates LLC101,147$657K0.0%-95.5%0.160%
2/1/2024 CWM LLC6,708$44K0.0%+3,125.0%0.011%
1/31/2024 Federated Hermes Inc.321,477$2.09M0.0%N/A0.508%
The ONE AI Stock to own now. (It’s not Nvidia.) (Ad)

Don’t panic — you haven’t missed the boat on AI. In fact, it has barely launched. Sure, the early stages of this boom were big … But I believe the real wealth in AI has yet to be made …

Click here to see the presentation now.
1/24/2024 Mirae Asset Global Investments Co. Ltd.40,761$265K0.0%+19.8%0.064%
1/12/2024 SG Americas Securities LLC56,989$370K0.0%N/A0.090%
1/12/2024 McGuire Investment Group LLC36,928$240K0.0%-21.2%0.058%
12/18/2023 Vanguard Group Inc.4,427,022$41.79M0.0%+0.3%7.000%
12/6/2023 Citigroup Inc.106,659$1.01M0.0%-34.4%0.169%
12/1/2023 Wellington Management Group LLP1,163,242$10.98M0.0%+72.9%1.839%
11/15/2023 Ranger Investment Management L.P.2,281,112$21.53M1.4%-4.0%3.615%
11/15/2023 Kennedy Capital Management LLC358,744$3.39M0.1%-5.9%0.568%
11/15/2023 Kerrisdale Advisers LLC49,030$463K0.1%N/A0.078%
11/14/2023 AWM Investment Company Inc.999,926$9.44M1.4%+1.7%1.584%
11/14/2023 B. Riley Asset Management LLC110,702$1.05M0.4%+51.7%0.175%
11/14/2023 Profund Advisors LLC35,343$334K0.0%-11.7%0.056%
11/13/2023 Aigen Investment Management LP26,757$253K0.0%N/A0.042%
11/13/2023 Sargent Investment Group LLC720,961$6.81M1.6%-1.6%1.142%
11/13/2023 WINTON GROUP Ltd38,837$367K0.0%+118.0%0.062%
11/13/2023 Rafferty Asset Management LLC193,879$1.83M0.0%-5.2%0.307%
11/13/2023 PNC Financial Services Group Inc.20,165$190K0.0%-19.0%0.032%
11/9/2023 Citigroup Inc.106,659$1.01M0.0%-34.4%0.169%
11/9/2023 Commonwealth of Pennsylvania Public School Empls Retrmt SYS41,938$396K0.0%-40.7%0.066%
11/9/2023 Texas Permanent School Fund Corp52,850$499K0.0%-4.0%0.084%
11/9/2023 Artisan Partners Limited Partnership1,672,302$15.79M0.0%+12.4%2.650%
11/8/2023 Charles Schwab Investment Management Inc.491,006$4.64M0.0%+2.6%0.778%
11/8/2023 Keybank National Association OH12,835$121K0.0%-33.7%0.020%
11/7/2023 Great Lakes Advisors LLC154,009$1.45M0.0%-10.9%0.244%
11/7/2023 New York State Common Retirement Fund991,083$9.36M0.0%+16.6%1.570%
11/7/2023 Barclays PLC126,611$1.20M0.0%+5.9%0.201%
11/7/2023 Fox Run Management L.L.C.28,295$267K0.1%N/A0.045%
11/7/2023 Zions Bancorporation N.A.64,867$612K0.1%N/A0.103%
11/6/2023 Victory Capital Management Inc.29,634$280K0.0%+12.3%0.047%
11/2/2023 Principal Financial Group Inc.342,506$3.23M0.0%-5.0%0.543%
11/2/2023 M&T Bank Corp85,759$810K0.0%+6.5%0.136%
10/31/2023 Jennison Associates LLC2,270,885$21.44M0.0%-26.6%3.598%
10/31/2023 Kornitzer Capital Management Inc. KS804,760$7.60M0.2%+3.1%1.275%
10/30/2023 Yousif Capital Management LLC25,772$243K0.0%-7.4%0.041%
10/27/2023 Allspring Global Investments Holdings LLC2,957$28K0.0%-95.4%0.005%
10/27/2023 TD Asset Management Inc114,830$1.08M0.0%+5.9%0.182%
10/27/2023 Roubaix Capital LLC77,843$735K0.5%N/A0.123%
10/26/2023 Punch & Associates Investment Management Inc.1,186,639$11.20M0.7%+15.1%1.880%
10/26/2023Advisor Partners II LLC10,433$98K0.0%N/A0.017%
10/24/2023 Bank of New York Mellon Corp532,003$5.02M0.0%-5.1%0.843%
10/24/2023 Raymond James & Associates11,082$105K0.0%-21.1%0.018%
10/19/2023 Peregrine Capital Management LLC384,608$3.63M0.1%-5.8%0.609%
10/18/2023 Greenwood Capital Associates LLC31,188$294K0.0%-46.9%0.049%
10/16/2023 State of Alaska Department of Revenue39,056$368K0.0%-5.1%0.062%
10/12/2023 McGuire Investment Group LLC46,878$443K0.1%-17.7%0.074%
10/12/2023 Legato Capital Management LLC219,672$2.07M0.3%-20.4%0.348%
10/10/2023 Phocas Financial Corp.244,903$2.31M0.3%+40.6%0.388%
8/24/2023 Alberta Investment Management Corp97,509$1.36M0.0%+235.5%0.155%
8/18/2023 Legato Capital Management LLC275,809$3.85M0.5%+625.8%0.440%
8/15/2023 Ranger Investment Management L.P.2,376,557$33.20M2.0%+4.6%3.789%
Moonshot Coins for the Current Crypto Run (Ad)

Are you monitoring 13,217 cryptocurrencies everyday? If not, you could miss the ONE that can make you wealthy beyond your wildest dreams. Just take a look:

Claim your free seat by clicking here now.
8/14/2023 B. Riley Asset Management LLC72,981$1.02M0.4%N/A0.116%
8/14/2023 Snyder Capital Management L P2,154,380$30.10M0.6%+24.6%3.434%
8/14/2023 Aristotle Capital Boston LLC660,985$9.23M0.3%-0.9%1.054%
8/14/2023 WINTON GROUP Ltd17,816$249K0.0%N/A0.028%
8/14/2023 Palisade Capital Management LP1,045,677$14.61M0.4%+4.3%1.667%
8/11/2023 Pinebridge Investments L.P.2,185$31K0.0%N/A0.003%
8/11/2023 Sei Investments Co.238,327$3.33M0.0%-1.9%0.380%
8/11/2023 E Fund Management Co. Ltd.10,990$154K0.0%+9.5%0.018%
8/10/2023 Profund Advisors LLC40,044$559K0.0%+11.3%0.064%
8/10/2023 Great Lakes Advisors LLC172,762$2.41M0.0%-11.6%0.275%
(Data available from 1/1/2016 forward)

CDMO Institutional Ownership - Frequently Asked Questions

Who are the largest shareholders of CDMO shares?

During the previous two years, 138 institutional investors and hedge funds held shares of Avid Bioservices. The most heavily invested institutionals were Scissortail Wealth Management LLC ($304.62M), FMR LLC ($92.90M), AltraVue Capital LLC ($45.48M), Geneva Capital Management LLC ($32.41M), Snyder Capital Management L P ($30.10M), Vanguard Group Inc. ($24.56M), and Royal Bank of Canada ($21.54M).Learn more on CDMO's institutional investors.

What percentage of Avid Bioservices stock is owned by institutional investors?

97.16% of Avid Bioservices stock is owned by institutional investors. Learn more on CDMO's institutional investor holdings.

Which institutional investors have been buying Avid Bioservices stock?

Of the 113 institutional investors that purchased Avid Bioservices stock in the last 24 months, the following investors and hedge funds have bought the highest volume of shares: 12 West Capital Management LP ($2.75M), Jennison Associates LLC ($1.83M), AltraVue Capital LLC ($1.10M), Wellington Management Group LLP ($806.17K), Royal Bank of Canada ($683.47K), Artisan Partners Limited Partnership ($568.73K), and Geneva Capital Management LLC ($470.43K).

How much institutional buying is happening at Avid Bioservices?

Institutional investors have bought a total of 17,191,132 shares in the last 24 months. This purchase volume represents approximately $219.00M in transactions.

Which Avid Bioservices major shareholders have been selling company stock?

Of the 66 institutional investors that sold Avid Bioservices stock in the last 24 months, the following investors and hedge funds have sold the highest volume of shares: Jennison Associates LLC ($2.99M), FMR LLC ($1.61M), Redwood Investments LLC ($395.83K), Driehaus Capital Management LLC ($395.65K), Legato Capital Management LLC ($300.02K), Artisan Partners Limited Partnership ($240.39K), and AWM Investment Company Inc. ($237.85K).

How much institutional selling is happening at Avid Bioservices?

Institutional investors have sold a total of 8,844,011 shares in the last 24 months. This volume of shares sold represents approximately $106.01M in transactions.


This page (NASDAQ:CDMO) was last updated on 6/12/2024 by MarketBeat.com Staff

From Our Partners